SBCR/CMG METAR and TAF weather

Enter ICAO airport designator
Station Type Date Time Source
SBCR METAR 2021/04/12 21:00 UTC NOAA

SBCR 122100Z 25008KT 9999 SCT020 21/19 Q1015


Station Type Date Time Source
SBCR Decoded METAR 2021/04/12 21:00 UTC NOAA

Corumba, Brazil (SBCR) 19-05S 057-30W
Apr 12, 2021 - 05:00 PM EDT / 2021.04.12 2100 UTC
Wind: from the WSW (250 degrees) at 9 MPH (8 KT):0
Visibility: greater than 7 mile(s):0
Sky conditions: partly cloudy
Temperature: 69 F (21 C)
Dew Point: 66 F (19 C)
Relative Humidity: 88%
Pressure (altimeter): 29.97 in. Hg (1015 hPa)
ob: SBCR 122100Z 25008KT 9999 SCT020 21/19 Q1015
cycle: 21

Station Type Date Time Source
SBCR TAF 2021/04/13 06:17 UTC NOAA

TAF SBCR 130200Z 1306/1406 22007KT 9999 BKN017 TN22/1309Z TX30/1318Z PROB30 1309/1315 BKN007
TEMPO 1318/1322 26005KT 8000 SHRA SCT030 FEW035TCU
RMK PGD

Example: see airport list